sensor_id;sensor_type;location;lat;lon;timestamp;P1;durP1;ratioP1;P2;durP2;ratioP2
50350;SDS011;36250;48.740;22.174;2024-01-27T00:00:54;21.45;;;12.77;;
50350;SDS011;36250;48.740;22.174;2024-01-27T00:03:20;16.40;;;10.75;;
50350;SDS011;36250;48.740;22.174;2024-01-27T00:05:45;35.97;;;18.48;;
50350;SDS011;36250;48.740;22.174;2024-01-27T00:08:11;40.55;;;21.92;;
50350;SDS011;36250;48.740;22.174;2024-01-27T00:10:36;30.17;;;17.13;;
50350;SDS011;36250;48.740;22.174;2024-01-27T00:13:01;25.00;;;17.30;;
50350;SDS011;36250;48.740;22.174;2024-01-27T00:15:27;28.60;;;16.65;;
50350;SDS011;36250;48.740;22.174;2024-01-27T00:17:52;28.23;;;16.85;;
50350;SDS011;36250;48.740;22.174;2024-01-27T00:20:18;21.98;;;13.63;;
50350;SDS011;36250;48.740;22.174;2024-01-27T00:22:43;78.30;;;38.28;;
50350;SDS011;36250;48.740;22.174;2024-01-27T00:25:08;31.20;;;17.25;;
50350;SDS011;36250;48.740;22.174;2024-01-27T00:27:34;32.67;;;18.08;;
50350;SDS011;36250;48.740;22.174;2024-01-27T00:29:59;42.88;;;24.70;;
50350;SDS011;36250;48.740;22.174;2024-01-27T00:32:24;27.63;;;14.82;;
50350;SDS011;36250;48.740;22.174;2024-01-27T00:34:50;26.83;;;15.85;;
50350;SDS011;36250;48.740;22.174;2024-01-27T00:37:15;29.58;;;14.27;;
50350;SDS011;36250;48.740;22.174;2024-01-27T00:39:41;24.75;;;13.77;;
50350;SDS011;36250;48.740;22.174;2024-01-27T00:42:06;25.73;;;15.55;;
50350;SDS011;36250;48.740;22.174;2024-01-27T00:44:31;21.58;;;12.68;;
50350;SDS011;36250;48.740;22.174;2024-01-27T00:46:56;20.23;;;11.60;;
50350;SDS011;36250;48.740;22.174;2024-01-27T00:49:22;18.80;;;11.32;;
50350;SDS011;36250;48.740;22.174;2024-01-27T00:51:47;28.33;;;13.65;;
50350;SDS011;36250;48.740;22.174;2024-01-27T00:54:13;35.88;;;16.02;;
50350;SDS011;36250;48.740;22.174;2024-01-27T00:56:38;31.85;;;17.58;;
50350;SDS011;36250;48.740;22.174;2024-01-27T00:59:03;48.63;;;23.27;;
50350;SDS011;36250;48.740;22.174;2024-01-27T01:01:29;63.47;;;27.90;;
50350;SDS011;36250;48.740;22.174;2024-01-27T01:03:54;63.90;;;26.67;;
50350;SDS011;36250;48.740;22.174;2024-01-27T01:06:19;73.80;;;29.15;;
50350;SDS011;36250;48.740;22.174;2024-01-27T01:08:44;44.30;;;22.05;;
50350;SDS011;36250;48.740;22.174;2024-01-27T01:11:10;50.17;;;23.60;;
50350;SDS011;36250;48.740;22.174;2024-01-27T01:13:35;67.50;;;29.30;;
50350;SDS011;36250;48.740;22.174;2024-01-27T01:16:01;59.40;;;28.08;;
50350;SDS011;36250;48.740;22.174;2024-01-27T01:18:28;49.38;;;24.83;;
50350;SDS011;36250;48.740;22.174;2024-01-27T01:20:53;36.47;;;20.00;;
50350;SDS011;36250;48.740;22.174;2024-01-27T01:23:19;36.67;;;21.58;;
50350;SDS011;36250;48.740;22.174;2024-01-27T01:25:44;50.67;;;27.55;;
50350;SDS011;36250;48.740;22.174;2024-01-27T01:28:09;34.38;;;19.42;;
50350;SDS011;36250;48.740;22.174;2024-01-27T01:30:35;29.08;;;17.23;;
50350;SDS011;36250;48.740;22.174;2024-01-27T01:33:01;26.88;;;15.70;;
50350;SDS011;36250;48.740;22.174;2024-01-27T01:35:26;29.85;;;14.93;;
50350;SDS011;36250;48.740;22.174;2024-01-27T01:37:52;30.83;;;16.92;;
50350;SDS011;36250;48.740;22.174;2024-01-27T01:40:17;33.95;;;17.60;;
50350;SDS011;36250;48.740;22.174;2024-01-27T01:42:42;39.33;;;21.10;;
50350;SDS011;36250;48.740;22.174;2024-01-27T01:45:09;39.55;;;24.63;;
50350;SDS011;36250;48.740;22.174;2024-01-27T01:47:37;33.42;;;19.38;;
50350;SDS011;36250;48.740;22.174;2024-01-27T01:50:02;29.10;;;16.95;;
50350;SDS011;36250;48.740;22.174;2024-01-27T01:52:28;44.17;;;26.20;;
50350;SDS011;36250;48.740;22.174;2024-01-27T01:54:54;50.55;;;30.65;;
50350;SDS011;36250;48.740;22.174;2024-01-27T01:57:19;47.00;;;28.08;;
50350;SDS011;36250;48.740;22.174;2024-01-27T01:59:44;24.73;;;15.63;;
50350;SDS011;36250;48.740;22.174;2024-01-27T02:02:10;53.42;;;30.55;;
50350;SDS011;36250;48.740;22.174;2024-01-27T02:04:42;32.30;;;18.42;;
50350;SDS011;36250;48.740;22.174;2024-01-27T02:07:08;34.33;;;20.30;;
50350;SDS011;36250;48.740;22.174;2024-01-27T02:09:34;29.48;;;15.98;;
50350;SDS011;36250;48.740;22.174;2024-01-27T02:11:59;19.38;;;12.02;;
50350;SDS011;36250;48.740;22.174;2024-01-27T02:14:24;20.63;;;11.48;;
50350;SDS011;36250;48.740;22.174;2024-01-27T02:16:52;15.63;;;10.70;;
50350;SDS011;36250;48.740;22.174;2024-01-27T02:19:18;21.50;;;12.32;;
50350;SDS011;36250;48.740;22.174;2024-01-27T02:21:43;16.80;;;11.13;;
50350;SDS011;36250;48.740;22.174;2024-01-27T02:24:08;19.13;;;12.02;;
50350;SDS011;36250;48.740;22.174;2024-01-27T02:26:35;18.88;;;11.18;;
50350;SDS011;36250;48.740;22.174;2024-01-27T02:29:00;20.17;;;12.02;;
50350;SDS011;36250;48.740;22.174;2024-01-27T02:31:26;22.27;;;11.13;;
50350;SDS011;36250;48.740;22.174;2024-01-27T02:33:51;19.05;;;11.77;;
50350;SDS011;36250;48.740;22.174;2024-01-27T02:36:17;20.02;;;12.55;;
50350;SDS011;36250;48.740;22.174;2024-01-27T02:38:42;15.93;;;11.02;;
50350;SDS011;36250;48.740;22.174;2024-01-27T02:41:09;18.55;;;11.20;;
50350;SDS011;36250;48.740;22.174;2024-01-27T02:43:34;22.15;;;12.65;;
50350;SDS011;36250;48.740;22.174;2024-01-27T02:46:00;18.40;;;11.05;;
50350;SDS011;36250;48.740;22.174;2024-01-27T02:48:25;16.73;;;11.10;;
50350;SDS011;36250;48.740;22.174;2024-01-27T02:50:50;22.52;;;14.07;;
50350;SDS011;36250;48.740;22.174;2024-01-27T02:53:16;23.75;;;12.82;;
50350;SDS011;36250;48.740;22.174;2024-01-27T02:55:41;19.88;;;13.30;;
50350;SDS011;36250;48.740;22.174;2024-01-27T02:58:06;22.75;;;12.40;;
50350;SDS011;36250;48.740;22.174;2024-01-27T03:00:32;23.38;;;14.20;;
50350;SDS011;36250;48.740;22.174;2024-01-27T03:02:57;24.60;;;14.10;;
50350;SDS011;36250;48.740;22.174;2024-01-27T03:05:23;27.08;;;14.00;;
50350;SDS011;36250;48.740;22.174;2024-01-27T03:07:49;32.53;;;15.20;;
50350;SDS011;36250;48.740;22.174;2024-01-27T03:10:14;23.23;;;15.10;;
50350;SDS011;36250;48.740;22.174;2024-01-27T03:12:40;21.60;;;13.30;;
50350;SDS011;36250;48.740;22.174;2024-01-27T03:15:05;32.15;;;16.83;;
50350;SDS011;36250;48.740;22.174;2024-01-27T03:17:30;26.42;;;16.05;;
50350;SDS011;36250;48.740;22.174;2024-01-27T03:19:56;17.85;;;12.55;;
50350;SDS011;36250;48.740;22.174;2024-01-27T03:22:21;24.75;;;12.45;;
50350;SDS011;36250;48.740;22.174;2024-01-27T03:24:46;20.88;;;13.45;;
50350;SDS011;36250;48.740;22.174;2024-01-27T03:27:12;17.23;;;11.57;;
50350;SDS011;36250;48.740;22.174;2024-01-27T03:29:37;21.77;;;12.73;;
50350;SDS011;36250;48.740;22.174;2024-01-27T03:32:03;27.05;;;15.18;;
50350;SDS011;36250;48.740;22.174;2024-01-27T03:34:28;22.38;;;14.02;;
50350;SDS011;36250;48.740;22.174;2024-01-27T03:36:54;24.08;;;14.95;;
50350;SDS011;36250;48.740;22.174;2024-01-27T03:39:19;23.35;;;13.77;;
50350;SDS011;36250;48.740;22.174;2024-01-27T03:41:44;22.55;;;13.60;;
50350;SDS011;36250;48.740;22.174;2024-01-27T03:44:10;26.45;;;16.33;;
50350;SDS011;36250;48.740;22.174;2024-01-27T03:46:35;21.65;;;12.90;;
50350;SDS011;36250;48.740;22.174;2024-01-27T03:49:02;23.33;;;12.63;;
50350;SDS011;36250;48.740;22.174;2024-01-27T03:51:27;20.92;;;12.93;;
50350;SDS011;36250;48.740;22.174;2024-01-27T03:53:53;22.40;;;13.82;;
50350;SDS011;36250;48.740;22.174;2024-01-27T03:56:19;34.15;;;19.38;;
50350;SDS011;36250;48.740;22.174;2024-01-27T03:58:44;28.85;;;16.02;;
50350;SDS011;36250;48.740;22.174;2024-01-27T04:01:09;34.80;;;19.92;;
50350;SDS011;36250;48.740;22.174;2024-01-27T04:03:35;27.00;;;17.15;;
50350;SDS011;36250;48.740;22.174;2024-01-27T04:06:00;27.83;;;16.38;;
50350;SDS011;36250;48.740;22.174;2024-01-27T04:08:27;26.95;;;16.65;;
50350;SDS011;36250;48.740;22.174;2024-01-27T04:10:54;33.47;;;20.65;;
50350;SDS011;36250;48.740;22.174;2024-01-27T04:13:19;33.75;;;19.20;;
50350;SDS011;36250;48.740;22.174;2024-01-27T04:15:44;29.67;;;17.48;;
50350;SDS011;36250;48.740;22.174;2024-01-27T04:18:10;28.83;;;18.08;;
50350;SDS011;36250;48.740;22.174;2024-01-27T04:20:36;31.27;;;17.48;;
50350;SDS011;36250;48.740;22.174;2024-01-27T04:23:02;35.47;;;20.38;;
50350;SDS011;36250;48.740;22.174;2024-01-27T04:25:28;33.80;;;20.00;;
50350;SDS011;36250;48.740;22.174;2024-01-27T04:27:53;45.65;;;24.35;;
50350;SDS011;36250;48.740;22.174;2024-01-27T04:30:18;37.33;;;20.67;;
50350;SDS011;36250;48.740;22.174;2024-01-27T04:32:44;38.20;;;23.45;;
50350;SDS011;36250;48.740;22.174;2024-01-27T04:35:09;54.75;;;29.48;;
50350;SDS011;36250;48.740;22.174;2024-01-27T04:37:35;33.72;;;19.80;;
50350;SDS011;36250;48.740;22.174;2024-01-27T04:40:01;35.92;;;20.63;;
50350;SDS011;36250;48.740;22.174;2024-01-27T04:42:26;31.98;;;19.58;;
50350;SDS011;36250;48.740;22.174;2024-01-27T04:44:51;30.45;;;18.65;;
50350;SDS011;36250;48.740;22.174;2024-01-27T04:47:17;33.47;;;18.17;;
50350;SDS011;36250;48.740;22.174;2024-01-27T04:49:42;27.45;;;16.67;;
50350;SDS011;36250;48.740;22.174;2024-01-27T04:52:07;27.80;;;15.88;;
50350;SDS011;36250;48.740;22.174;2024-01-27T04:54:33;26.98;;;16.42;;
50350;SDS011;36250;48.740;22.174;2024-01-27T04:56:58;29.85;;;17.77;;
50350;SDS011;36250;48.740;22.174;2024-01-27T04:59:23;33.63;;;18.58;;
50350;SDS011;36250;48.740;22.174;2024-01-27T05:01:49;29.77;;;17.20;;
50350;SDS011;36250;48.740;22.174;2024-01-27T05:04:16;27.88;;;17.02;;
50350;SDS011;36250;48.740;22.174;2024-01-27T05:06:44;31.58;;;16.83;;
50350;SDS011;36250;48.740;22.174;2024-01-27T05:09:12;26.88;;;14.85;;
50350;SDS011;36250;48.740;22.174;2024-01-27T05:11:38;31.85;;;16.88;;
50350;SDS011;36250;48.740;22.174;2024-01-27T05:14:04;31.67;;;16.02;;
50350;SDS011;36250;48.740;22.174;2024-01-27T05:16:29;26.55;;;15.55;;
50350;SDS011;36250;48.740;22.174;2024-01-27T05:18:54;25.15;;;15.25;;
50350;SDS011;36250;48.740;22.174;2024-01-27T05:21:20;25.67;;;15.00;;
50350;SDS011;36250;48.740;22.174;2024-01-27T05:23:46;24.70;;;13.10;;
50350;SDS011;36250;48.740;22.174;2024-01-27T05:26:11;22.80;;;12.73;;
50350;SDS011;36250;48.740;22.174;2024-01-27T05:28:37;20.77;;;11.93;;
50350;SDS011;36250;48.740;22.174;2024-01-27T05:31:06;27.23;;;13.02;;
50350;SDS011;36250;48.740;22.174;2024-01-27T05:33:32;17.83;;;9.73;;
50350;SDS011;36250;48.740;22.174;2024-01-27T05:35:57;17.85;;;8.82;;
50350;SDS011;36250;48.740;22.174;2024-01-27T05:38:22;12.13;;;7.22;;
50350;SDS011;36250;48.740;22.174;2024-01-27T05:40:48;10.25;;;5.65;;
50350;SDS011;36250;48.740;22.174;2024-01-27T05:43:15;11.32;;;5.90;;
50350;SDS011;36250;48.740;22.174;2024-01-27T05:45:41;6.95;;;4.72;;
50350;SDS011;36250;48.740;22.174;2024-01-27T05:48:06;14.52;;;5.18;;
50350;SDS011;36250;48.740;22.174;2024-01-27T05:50:32;16.48;;;7.43;;
50350;SDS011;36250;48.740;22.174;2024-01-27T05:52:59;48.22;;;21.33;;
50350;SDS011;36250;48.740;22.174;2024-01-27T05:55:24;41.38;;;19.27;;
50350;SDS011;36250;48.740;22.174;2024-01-27T05:57:50;17.33;;;10.32;;
50350;SDS011;36250;48.740;22.174;2024-01-27T06:00:15;9.77;;;4.60;;
50350;SDS011;36250;48.740;22.174;2024-01-27T06:02:40;11.77;;;4.57;;
50350;SDS011;36250;48.740;22.174;2024-01-27T06:05:06;9.30;;;4.20;;
50350;SDS011;36250;48.740;22.174;2024-01-27T06:07:33;9.88;;;3.05;;
50350;SDS011;36250;48.740;22.174;2024-01-27T06:09:59;10.18;;;2.50;;
50350;SDS011;36250;48.740;22.174;2024-01-27T06:12:24;6.68;;;2.65;;
50350;SDS011;36250;48.740;22.174;2024-01-27T06:14:50;9.25;;;2.38;;
50350;SDS011;36250;48.740;22.174;2024-01-27T06:17:15;11.23;;;2.55;;
50350;SDS011;36250;48.740;22.174;2024-01-27T06:19:41;10.70;;;2.05;;
50350;SDS011;36250;48.740;22.174;2024-01-27T06:22:06;6.10;;;2.03;;
50350;SDS011;36250;48.740;22.174;2024-01-27T06:24:32;9.80;;;2.13;;
50350;SDS011;36250;48.740;22.174;2024-01-27T06:26:57;8.00;;;2.17;;
50350;SDS011;36250;48.740;22.174;2024-01-27T06:29:23;9.25;;;1.98;;
50350;SDS011;36250;48.740;22.174;2024-01-27T06:31:48;4.18;;;1.75;;
50350;SDS011;36250;48.740;22.174;2024-01-27T06:34:13;9.63;;;2.42;;
50350;SDS011;36250;48.740;22.174;2024-01-27T06:36:39;7.22;;;1.70;;
50350;SDS011;36250;48.740;22.174;2024-01-27T06:39:04;6.38;;;2.22;;
50350;SDS011;36250;48.740;22.174;2024-01-27T06:41:29;3.30;;;1.85;;
50350;SDS011;36250;48.740;22.174;2024-01-27T06:43:55;3.83;;;1.60;;
50350;SDS011;36250;48.740;22.174;2024-01-27T06:46:20;6.93;;;1.58;;
50350;SDS011;36250;48.740;22.174;2024-01-27T06:48:45;7.90;;;1.80;;
50350;SDS011;36250;48.740;22.174;2024-01-27T06:51:11;9.13;;;2.03;;
50350;SDS011;36250;48.740;22.174;2024-01-27T06:53:36;7.97;;;2.10;;
50350;SDS011;36250;48.740;22.174;2024-01-27T06:56:02;6.72;;;2.28;;
50350;SDS011;36250;48.740;22.174;2024-01-27T06:58:27;7.93;;;2.30;;
50350;SDS011;36250;48.740;22.174;2024-01-27T07:00:53;4.70;;;1.75;;
50350;SDS011;36250;48.740;22.174;2024-01-27T07:03:18;3.72;;;1.40;;
50350;SDS011;36250;48.740;22.174;2024-01-27T07:05:44;8.68;;;1.90;;
50350;SDS011;36250;48.740;22.174;2024-01-27T07:08:10;9.40;;;2.30;;
50350;SDS011;36250;48.740;22.174;2024-01-27T07:10:35;9.10;;;2.00;;
50350;SDS011;36250;48.740;22.174;2024-01-27T07:13:01;8.27;;;1.83;;
50350;SDS011;36250;48.740;22.174;2024-01-27T07:15:26;8.18;;;2.20;;
50350;SDS011;36250;48.740;22.174;2024-01-27T07:17:53;10.57;;;1.60;;
50350;SDS011;36250;48.740;22.174;2024-01-27T07:20:18;9.50;;;1.83;;
50350;SDS011;36250;48.740;22.174;2024-01-27T07:22:45;5.07;;;1.70;;
50350;SDS011;36250;48.740;22.174;2024-01-27T07:25:10;6.78;;;1.75;;
50350;SDS011;36250;48.740;22.174;2024-01-27T07:27:35;9.35;;;2.80;;
50350;SDS011;36250;48.740;22.174;2024-01-27T07:30:01;5.72;;;2.03;;
50350;SDS011;36250;48.740;22.174;2024-01-27T07:32:28;4.43;;;1.52;;
50350;SDS011;36250;48.740;22.174;2024-01-27T07:34:53;5.20;;;0.95;;
50350;SDS011;36250;48.740;22.174;2024-01-27T07:37:19;3.58;;;1.27;;
50350;SDS011;36250;48.740;22.174;2024-01-27T07:39:45;9.00;;;2.28;;
50350;SDS011;36250;48.740;22.174;2024-01-27T07:42:11;4.90;;;1.73;;
50350;SDS011;36250;48.740;22.174;2024-01-27T07:44:37;6.07;;;1.27;;
50350;SDS011;36250;48.740;22.174;2024-01-27T07:47:02;7.00;;;1.60;;
50350;SDS011;36250;48.740;22.174;2024-01-27T07:49:28;11.68;;;1.63;;
50350;SDS011;36250;48.740;22.174;2024-01-27T07:51:53;5.97;;;1.70;;
50350;SDS011;36250;48.740;22.174;2024-01-27T07:54:18;7.03;;;1.33;;
50350;SDS011;36250;48.740;22.174;2024-01-27T07:56:44;7.70;;;2.60;;
50350;SDS011;36250;48.740;22.174;2024-01-27T07:59:09;3.15;;;1.20;;
50350;SDS011;36250;48.740;22.174;2024-01-27T08:01:39;10.43;;;1.77;;
50350;SDS011;36250;48.740;22.174;2024-01-27T08:04:05;9.15;;;1.52;;
50350;SDS011;36250;48.740;22.174;2024-01-27T08:06:31;9.77;;;1.73;;
50350;SDS011;36250;48.740;22.174;2024-01-27T08:08:56;8.25;;;1.63;;
50350;SDS011;36250;48.740;22.174;2024-01-27T08:11:22;4.05;;;1.13;;
50350;SDS011;36250;48.740;22.174;2024-01-27T08:13:47;4.20;;;1.30;;
50350;SDS011;36250;48.740;22.174;2024-01-27T08:16:13;4.07;;;1.38;;
50350;SDS011;36250;48.740;22.174;2024-01-27T08:18:39;5.90;;;1.63;;
50350;SDS011;36250;48.740;22.174;2024-01-27T08:21:07;6.05;;;1.27;;
50350;SDS011;36250;48.740;22.174;2024-01-27T08:23:32;5.22;;;1.10;;
50350;SDS011;36250;48.740;22.174;2024-01-27T08:25:58;4.57;;;1.05;;
50350;SDS011;36250;48.740;22.174;2024-01-27T08:28:23;3.90;;;0.88;;
50350;SDS011;36250;48.740;22.174;2024-01-27T08:30:49;6.30;;;1.33;;
50350;SDS011;36250;48.740;22.174;2024-01-27T08:33:14;6.38;;;1.33;;
50350;SDS011;36250;48.740;22.174;2024-01-27T08:35:40;5.93;;;2.20;;
50350;SDS011;36250;48.740;22.174;2024-01-27T08:38:05;3.30;;;1.27;;
50350;SDS011;36250;48.740;22.174;2024-01-27T08:40:31;5.85;;;1.40;;
50350;SDS011;36250;48.740;22.174;2024-01-27T08:42:57;4.88;;;1.45;;
50350;SDS011;36250;48.740;22.174;2024-01-27T08:45:22;6.38;;;1.42;;
50350;SDS011;36250;48.740;22.174;2024-01-27T08:47:48;5.32;;;1.50;;
50350;SDS011;36250;48.740;22.174;2024-01-27T08:50:13;5.30;;;1.27;;
50350;SDS011;36250;48.740;22.174;2024-01-27T08:52:39;5.80;;;1.48;;
50350;SDS011;36250;48.740;22.174;2024-01-27T08:55:04;8.07;;;2.05;;
50350;SDS011;36250;48.740;22.174;2024-01-27T08:57:30;6.68;;;1.45;;
50350;SDS011;36250;48.740;22.174;2024-01-27T08:59:55;6.28;;;1.42;;
50350;SDS011;36250;48.740;22.174;2024-01-27T09:02:21;5.38;;;1.52;;
50350;SDS011;36250;48.740;22.174;2024-01-27T09:04:46;5.90;;;1.70;;
50350;SDS011;36250;48.740;22.174;2024-01-27T09:07:11;6.28;;;1.75;;
50350;SDS011;36250;48.740;22.174;2024-01-27T09:09:37;7.82;;;1.60;;
50350;SDS011;36250;48.740;22.174;2024-01-27T09:12:04;15.20;;;2.08;;
50350;SDS011;36250;48.740;22.174;2024-01-27T09:14:29;7.82;;;1.52;;
50350;SDS011;36250;48.740;22.174;2024-01-27T09:16:55;12.18;;;1.98;;
50350;SDS011;36250;48.740;22.174;2024-01-27T09:19:20;2.95;;;1.60;;
50350;SDS011;36250;48.740;22.174;2024-01-27T09:21:46;4.47;;;1.23;;
50350;SDS011;36250;48.740;22.174;2024-01-27T09:24:12;6.03;;;1.20;;
50350;SDS011;36250;48.740;22.174;2024-01-27T09:26:37;4.70;;;1.15;;
50350;SDS011;36250;48.740;22.174;2024-01-27T09:29:02;5.35;;;1.38;;
50350;SDS011;36250;48.740;22.174;2024-01-27T09:31:28;6.22;;;2.10;;
50350;SDS011;36250;48.740;22.174;2024-01-27T09:33:53;5.32;;;1.30;;
50350;SDS011;36250;48.740;22.174;2024-01-27T09:36:19;6.30;;;2.13;;
50350;SDS011;36250;48.740;22.174;2024-01-27T09:38:45;6.88;;;1.77;;
50350;SDS011;36250;48.740;22.174;2024-01-27T09:41:12;6.82;;;1.95;;
50350;SDS011;36250;48.740;22.174;2024-01-27T09:43:38;7.80;;;1.60;;
50350;SDS011;36250;48.740;22.174;2024-01-27T09:46:08;6.75;;;1.42;;
50350;SDS011;36250;48.740;22.174;2024-01-27T09:48:34;5.20;;;1.60;;
50350;SDS011;36250;48.740;22.174;2024-01-27T09:51:01;6.85;;;1.60;;
50350;SDS011;36250;48.740;22.174;2024-01-27T09:53:28;4.47;;;1.50;;
50350;SDS011;36250;48.740;22.174;2024-01-27T09:55:54;10.13;;;3.25;;
50350;SDS011;36250;48.740;22.174;2024-01-27T09:58:24;3.92;;;1.10;;
50350;SDS011;36250;48.740;22.174;2024-01-27T10:00:52;7.43;;;1.38;;
50350;SDS011;36250;48.740;22.174;2024-01-27T10:03:21;6.57;;;1.80;;
50350;SDS011;36250;48.740;22.174;2024-01-27T10:05:48;7.35;;;1.45;;
50350;SDS011;36250;48.740;22.174;2024-01-27T10:08:14;8.75;;;1.85;;
50350;SDS011;36250;48.740;22.174;2024-01-27T10:10:40;10.52;;;2.60;;
50350;SDS011;36250;48.740;22.174;2024-01-27T10:13:05;11.82;;;3.47;;
50350;SDS011;36250;48.740;22.174;2024-01-27T10:15:31;4.80;;;1.48;;
50350;SDS011;36250;48.740;22.174;2024-01-27T10:18:05;11.32;;;3.35;;
50350;SDS011;36250;48.740;22.174;2024-01-27T10:20:32;7.00;;;1.75;;
50350;SDS011;36250;48.740;22.174;2024-01-27T10:22:57;9.05;;;2.75;;
50350;SDS011;36250;48.740;22.174;2024-01-27T10:25:23;7.85;;;2.03;;
50350;SDS011;36250;48.740;22.174;2024-01-27T10:27:48;7.80;;;2.83;;
50350;SDS011;36250;48.740;22.174;2024-01-27T10:30:17;8.45;;;1.65;;
50350;SDS011;36250;48.740;22.174;2024-01-27T10:32:43;7.00;;;2.13;;
50350;SDS011;36250;48.740;22.174;2024-01-27T10:35:09;12.80;;;1.70;;
50350;SDS011;36250;48.740;22.174;2024-01-27T10:37:34;6.80;;;1.55;;
50350;SDS011;36250;48.740;22.174;2024-01-27T10:42:27;5.13;;;1.85;;
50350;SDS011;36250;48.740;22.174;2024-01-27T10:44:55;9.75;;;1.90;;
50350;SDS011;36250;48.740;22.174;2024-01-27T10:47:23;9.93;;;2.00;;
50350;SDS011;36250;48.740;22.174;2024-01-27T10:49:52;7.82;;;2.95;;
50350;SDS011;36250;48.740;22.174;2024-01-27T10:52:19;9.07;;;1.90;;
50350;SDS011;36250;48.740;22.174;2024-01-27T10:54:48;8.20;;;1.85;;
50350;SDS011;36250;48.740;22.174;2024-01-27T10:57:15;3.83;;;1.60;;
50350;SDS011;36250;48.740;22.174;2024-01-27T10:59:43;7.80;;;2.17;;
50350;SDS011;36250;48.740;22.174;2024-01-27T11:02:10;6.97;;;1.80;;
50350;SDS011;36250;48.740;22.174;2024-01-27T11:04:37;8.18;;;1.75;;
50350;SDS011;36250;48.740;22.174;2024-01-27T11:07:04;8.13;;;2.08;;
50350;SDS011;36250;48.740;22.174;2024-01-27T11:09:32;9.18;;;2.90;;
50350;SDS011;36250;48.740;22.174;2024-01-27T11:11:59;7.95;;;1.92;;
50350;SDS011;36250;48.740;22.174;2024-01-27T11:14:26;7.80;;;2.70;;
50350;SDS011;36250;48.740;22.174;2024-01-27T11:16:55;6.78;;;2.15;;
50350;SDS011;36250;48.740;22.174;2024-01-27T11:19:22;7.95;;;1.73;;
50350;SDS011;36250;48.740;22.174;2024-01-27T11:21:47;6.60;;;1.83;;
50350;SDS011;36250;48.740;22.174;2024-01-27T11:24:16;4.68;;;1.40;;
50350;SDS011;36250;48.740;22.174;2024-01-27T11:26:42;5.68;;;2.10;;
50350;SDS011;36250;48.740;22.174;2024-01-27T11:29:08;8.13;;;1.60;;
50350;SDS011;36250;48.740;22.174;2024-01-27T11:31:54;5.80;;;1.95;;
50350;SDS011;36250;48.740;22.174;2024-01-27T11:34:19;8.77;;;2.55;;
50350;SDS011;36250;48.740;22.174;2024-01-27T11:36:45;10.95;;;2.05;;
50350;SDS011;36250;48.740;22.174;2024-01-27T11:41:50;11.15;;;2.05;;
50350;SDS011;36250;48.740;22.174;2024-01-27T11:44:15;4.40;;;1.70;;
50350;SDS011;36250;48.740;22.174;2024-01-27T11:46:42;8.10;;;1.83;;
50350;SDS011;36250;48.740;22.174;2024-01-27T11:49:13;4.90;;;2.13;;
50350;SDS011;36250;48.740;22.174;2024-01-27T11:51:40;9.05;;;2.28;;
50350;SDS011;36250;48.740;22.174;2024-01-27T11:54:05;9.07;;;1.90;;
50350;SDS011;36250;48.740;22.174;2024-01-27T11:56:30;7.00;;;2.72;;
50350;SDS011;36250;48.740;22.174;2024-01-27T11:58:56;5.57;;;2.17;;
50350;SDS011;36250;48.740;22.174;2024-01-27T12:01:22;6.97;;;2.20;;
50350;SDS011;36250;48.740;22.174;2024-01-27T12:03:47;5.70;;;2.03;;
50350;SDS011;36250;48.740;22.174;2024-01-27T12:06:13;4.80;;;1.77;;
50350;SDS011;36250;48.740;22.174;2024-01-27T12:08:40;14.05;;;2.63;;
50350;SDS011;36250;48.740;22.174;2024-01-27T12:11:11;5.07;;;1.83;;
50350;SDS011;36250;48.740;22.174;2024-01-27T12:13:37;10.20;;;2.13;;
50350;SDS011;36250;48.740;22.174;2024-01-27T12:16:03;6.28;;;1.90;;
50350;SDS011;36250;48.740;22.174;2024-01-27T12:18:28;9.55;;;3.05;;
50350;SDS011;36250;48.740;22.174;2024-01-27T12:20:55;11.68;;;4.07;;
50350;SDS011;36250;48.740;22.174;2024-01-27T12:23:21;7.10;;;3.20;;
50350;SDS011;36250;48.740;22.174;2024-01-27T12:25:52;13.25;;;4.97;;
50350;SDS011;36250;48.740;22.174;2024-01-27T12:28:18;11.70;;;4.07;;
50350;SDS011;36250;48.740;22.174;2024-01-27T12:30:45;13.73;;;5.03;;
50350;SDS011;36250;48.740;22.174;2024-01-27T12:33:12;15.80;;;5.95;;
50350;SDS011;36250;48.740;22.174;2024-01-27T12:35:37;6.45;;;3.00;;
50350;SDS011;36250;48.740;22.174;2024-01-27T12:38:05;8.10;;;2.72;;
50350;SDS011;36250;48.740;22.174;2024-01-27T12:40:31;8.95;;;3.90;;
50350;SDS011;36250;48.740;22.174;2024-01-27T12:42:56;18.00;;;4.28;;
50350;SDS011;36250;48.740;22.174;2024-01-27T12:45:21;8.75;;;2.40;;
50350;SDS011;36250;48.740;22.174;2024-01-27T12:47:47;5.03;;;2.40;;
50350;SDS011;36250;48.740;22.174;2024-01-27T12:50:12;7.30;;;2.55;;
50350;SDS011;36250;48.740;22.174;2024-01-27T12:52:38;6.55;;;2.35;;
50350;SDS011;36250;48.740;22.174;2024-01-27T12:55:05;5.72;;;1.73;;
50350;SDS011;36250;48.740;22.174;2024-01-27T12:57:30;8.38;;;2.60;;
50350;SDS011;36250;48.740;22.174;2024-01-27T12:59:56;4.90;;;1.88;;
50350;SDS011;36250;48.740;22.174;2024-01-27T13:02:21;4.60;;;1.65;;
50350;SDS011;36250;48.740;22.174;2024-01-27T13:04:47;10.05;;;2.40;;
50350;SDS011;36250;48.740;22.174;2024-01-27T13:07:12;8.63;;;2.05;;
50350;SDS011;36250;48.740;22.174;2024-01-27T13:09:39;4.85;;;2.33;;
50350;SDS011;36250;48.740;22.174;2024-01-27T13:12:04;7.50;;;2.05;;
50350;SDS011;36250;48.740;22.174;2024-01-27T13:14:30;3.00;;;1.20;;
50350;SDS011;36250;48.740;22.174;2024-01-27T13:16:55;3.83;;;2.63;;
50350;SDS011;36250;48.740;22.174;2024-01-27T13:19:24;3.28;;;1.70;;
50350;SDS011;36250;48.740;22.174;2024-01-27T13:21:49;4.43;;;1.30;;
50350;SDS011;36250;48.740;22.174;2024-01-27T13:24:15;3.55;;;1.40;;
50350;SDS011;36250;48.740;22.174;2024-01-27T13:26:40;4.45;;;1.40;;
50350;SDS011;36250;48.740;22.174;2024-01-27T13:29:06;3.92;;;1.40;;
50350;SDS011;36250;48.740;22.174;2024-01-27T13:31:32;2.63;;;1.23;;
50350;SDS011;36250;48.740;22.174;2024-01-27T13:33:58;2.65;;;1.10;;
50350;SDS011;36250;48.740;22.174;2024-01-27T13:36:27;3.70;;;1.52;;
50350;SDS011;36250;48.740;22.174;2024-01-27T13:38:52;3.70;;;1.70;;
50350;SDS011;36250;48.740;22.174;2024-01-27T13:41:18;3.55;;;1.65;;
50350;SDS011;36250;48.740;22.174;2024-01-27T13:43:43;5.20;;;1.80;;
50350;SDS011;36250;48.740;22.174;2024-01-27T13:46:09;2.00;;;1.40;;
50350;SDS011;36250;48.740;22.174;2024-01-27T13:48:35;4.00;;;1.48;;
50350;SDS011;36250;48.740;22.174;2024-01-27T13:51:00;3.78;;;1.10;;
50350;SDS011;36250;48.740;22.174;2024-01-27T13:53:26;2.67;;;1.73;;
50350;SDS011;36250;48.740;22.174;2024-01-27T13:55:51;5.13;;;2.15;;
50350;SDS011;36250;48.740;22.174;2024-01-27T13:58:19;4.43;;;2.92;;
50350;SDS011;36250;48.740;22.174;2024-01-27T14:00:45;2.67;;;2.13;;
50350;SDS011;36250;48.740;22.174;2024-01-27T14:03:10;4.80;;;2.05;;
50350;SDS011;36250;48.740;22.174;2024-01-27T14:05:36;3.63;;;1.63;;
50350;SDS011;36250;48.740;22.174;2024-01-27T14:08:03;4.68;;;1.73;;
50350;SDS011;36250;48.740;22.174;2024-01-27T14:10:29;2.40;;;1.88;;
50350;SDS011;36250;48.740;22.174;2024-01-27T14:12:54;3.33;;;2.40;;
50350;SDS011;36250;48.740;22.174;2024-01-27T14:15:20;4.00;;;1.30;;
50350;SDS011;36250;48.740;22.174;2024-01-27T14:17:45;2.78;;;1.50;;
50350;SDS011;36250;48.740;22.174;2024-01-27T14:20:11;3.63;;;1.75;;